createdAt,value
2024-01-07T00:01:27.053Z,0.90
2024-01-07T00:03:29.768Z,0.82
2024-01-07T00:05:34.446Z,0.80
2024-01-07T00:07:37.402Z,0.70
2024-01-07T00:09:39.881Z,0.65
2024-01-07T00:12:02.399Z,0.60
2024-01-07T00:14:05.094Z,1.00
2024-01-07T00:16:08.450Z,0.77
2024-01-07T00:18:14.122Z,0.70
2024-01-07T00:20:16.750Z,1.20
2024-01-07T00:22:19.454Z,0.60
2024-01-07T00:24:22.045Z,0.68
2024-01-07T00:26:24.679Z,0.70
2024-01-07T00:28:27.241Z,0.55
2024-01-07T00:30:31.043Z,0.57
2024-01-07T00:32:33.709Z,0.60
2024-01-07T00:34:38.979Z,0.50
2024-01-07T00:36:41.676Z,0.77
2024-01-07T00:38:44.964Z,0.80
2024-01-07T00:40:49.130Z,0.70
2024-01-07T00:42:52.622Z,0.50
2024-01-07T00:44:55.300Z,0.52
2024-01-07T00:46:57.985Z,1.05
2024-01-07T00:49:00.822Z,0.52
2024-01-07T00:51:06.221Z,1.17
2024-01-07T00:53:08.731Z,0.90
2024-01-07T00:55:12.109Z,0.82
2024-01-07T00:57:14.596Z,0.65
2024-01-07T00:59:18.848Z,0.75
2024-01-07T01:01:21.761Z,0.70
2024-01-07T01:03:24.431Z,0.65
2024-01-07T01:05:27.668Z,0.65
2024-01-07T01:07:33.270Z,0.60
2024-01-07T01:09:37.337Z,0.60
2024-01-07T01:11:41.313Z,0.60
2024-01-07T01:13:44.185Z,0.45
2024-01-07T01:15:46.946Z,0.50
2024-01-07T01:17:49.640Z,1.15
2024-01-07T01:19:52.296Z,0.50
2024-01-07T01:21:55.442Z,0.50
2024-01-07T01:24:01.515Z,0.60
2024-01-07T01:26:05.188Z,0.52
2024-01-07T01:28:08.067Z,0.73
2024-01-07T01:30:12.342Z,0.70
2024-01-07T01:32:14.949Z,0.45
2024-01-07T01:34:37.587Z,0.60
2024-01-07T01:36:41.025Z,0.80
2024-01-07T01:38:43.726Z,0.50
2024-01-07T01:40:53.105Z,1.05
2024-01-07T01:45:01.081Z,0.60
2024-01-07T01:47:04.036Z,0.60
2024-01-07T01:49:07.839Z,0.60
2024-01-07T01:51:11.183Z,0.50
2024-01-07T01:53:14.205Z,0.63
2024-01-07T01:55:17.293Z,0.55
2024-01-07T01:57:25.999Z,0.60
2024-01-07T01:59:30.465Z,0.70
2024-01-07T02:01:33.134Z,0.47
2024-01-07T02:03:35.869Z,0.65
2024-01-07T02:05:38.656Z,0.47
2024-01-07T02:07:41.417Z,0.60
2024-01-07T02:09:45.505Z,1.15
2024-01-07T02:12:02.283Z,0.70
2024-01-07T02:14:07.642Z,0.60
2024-01-07T02:16:10.375Z,0.40
2024-01-07T02:18:14.223Z,0.40
2024-01-07T02:20:17.075Z,0.60
2024-01-07T02:22:20.383Z,0.68
2024-01-07T02:24:26.069Z,0.43
2024-01-07T02:26:30.240Z,0.65
2024-01-07T02:28:35.483Z,0.45
2024-01-07T02:30:38.080Z,0.57
2024-01-07T02:32:41.212Z,0.52
2024-01-07T02:34:43.843Z,0.50
2024-01-07T02:36:46.439Z,0.60
2024-01-07T02:38:49.209Z,0.82
2024-01-07T02:40:54.696Z,0.40
2024-01-07T02:42:57.975Z,0.32
2024-01-07T02:45:00.846Z,0.80
2024-01-07T02:47:05.180Z,0.52
2024-01-07T02:49:27.729Z,0.52
2024-01-07T02:51:31.021Z,0.50
2024-01-07T02:53:33.595Z,0.40
2024-01-07T02:55:36.076Z,0.40
2024-01-07T02:57:41.464Z,0.63
2024-01-07T02:59:45.758Z,0.63
2024-01-07T03:01:48.461Z,0.50
2024-01-07T03:03:52.436Z,0.47
2024-01-07T03:05:55.027Z,0.40
2024-01-07T03:07:57.925Z,0.50
2024-01-07T03:10:00.801Z,0.50
2024-01-07T03:12:03.504Z,0.50
2024-01-07T03:14:08.869Z,0.40
2024-01-07T03:16:21.214Z,0.38
2024-01-07T03:18:24.534Z,0.68
2024-01-07T03:20:27.285Z,0.52
2024-01-07T03:22:30.401Z,0.40
2024-01-07T03:24:33.129Z,0.50
2024-01-07T03:26:35.713Z,0.55
2024-01-07T03:28:38.183Z,0.40
2024-01-07T03:30:43.863Z,0.50
2024-01-07T03:32:46.356Z,1.10
2024-01-07T03:34:49.118Z,0.40
2024-01-07T03:36:51.833Z,0.60
2024-01-07T03:38:55.530Z,0.30
2024-01-07T03:40:57.990Z,0.43
2024-01-07T03:43:00.721Z,0.40
2024-01-07T03:45:03.839Z,0.40
2024-01-07T03:47:29.218Z,0.45
2024-01-07T03:49:31.768Z,0.20
2024-01-07T03:51:34.373Z,0.50
2024-01-07T03:53:36.918Z,0.30
2024-01-07T03:55:39.461Z,0.40
2024-01-07T03:58:01.922Z,0.40
2024-01-07T04:00:07.770Z,0.57
2024-01-07T04:02:10.829Z,0.40
2024-01-07T04:04:16.032Z,0.45
2024-01-07T04:06:18.625Z,0.40
2024-01-07T04:08:23.627Z,0.38
2024-01-07T04:10:26.111Z,0.38
2024-01-07T04:12:28.739Z,0.35
2024-01-07T04:14:35.176Z,0.50
2024-01-07T04:16:37.816Z,0.20
2024-01-07T04:18:40.686Z,0.50
2024-01-07T04:20:45.854Z,0.32
2024-01-07T04:22:48.630Z,0.63
2024-01-07T04:24:51.041Z,0.55
2024-01-07T04:26:53.554Z,0.20
2024-01-07T04:28:56.017Z,0.40
2024-01-07T04:30:58.893Z,0.43
2024-01-07T04:33:02.339Z,0.47
2024-01-07T04:35:05.865Z,0.40
2024-01-07T04:37:10.990Z,0.30
2024-01-07T04:39:13.475Z,0.30
2024-01-07T04:41:15.971Z,0.32
2024-01-07T04:43:18.496Z,0.50
2024-01-07T04:45:21.410Z,0.30
2024-01-07T04:47:31.663Z,0.50
2024-01-07T04:49:34.365Z,0.43
2024-01-07T04:51:39.853Z,0.32
2024-01-07T04:53:45.020Z,0.30
2024-01-07T04:56:08.114Z,0.40
2024-01-07T04:58:10.926Z,0.30
2024-01-07T05:00:15.093Z,0.47
2024-01-07T05:02:18.253Z,0.30
2024-01-07T05:04:20.925Z,0.30
2024-01-07T05:06:23.731Z,0.30
2024-01-07T05:08:28.114Z,0.30
2024-01-07T05:10:53.153Z,0.40
2024-01-07T05:12:55.776Z,0.30
2024-01-07T05:14:59.439Z,0.32
2024-01-07T05:17:02.208Z,0.52
2024-01-07T05:19:05.831Z,0.60
2024-01-07T05:21:08.460Z,0.38
2024-01-07T05:23:11.022Z,0.20
2024-01-07T05:25:14.126Z,0.38
2024-01-07T05:27:19.691Z,0.30
2024-01-07T05:29:24.419Z,0.38
2024-01-07T05:31:26.954Z,0.30
2024-01-07T05:33:29.673Z,0.45
2024-01-07T05:35:32.379Z,0.60
2024-01-07T05:37:34.899Z,0.32
2024-01-07T05:39:57.431Z,0.30
2024-01-07T05:41:59.921Z,0.28
2024-01-07T05:44:07.301Z,0.50
2024-01-07T05:46:09.914Z,0.40
2024-01-07T05:48:12.638Z,0.40
2024-01-07T05:50:17.225Z,0.40
2024-01-07T05:52:20.757Z,0.35
2024-01-07T05:54:23.957Z,0.25
2024-01-07T05:56:26.468Z,0.20
2024-01-07T05:58:28.919Z,0.22
2024-01-07T06:00:35.948Z,0.30
2024-01-07T06:02:39.568Z,0.30
2024-01-07T06:04:42.333Z,0.50
2024-01-07T06:06:46.103Z,0.38
2024-01-07T06:08:48.641Z,0.40
2024-01-07T06:10:51.324Z,0.45
2024-01-07T06:12:53.762Z,0.35
2024-01-07T06:14:56.443Z,0.32
2024-01-07T06:17:02.206Z,0.20
2024-01-07T06:19:04.825Z,0.55
2024-01-07T06:21:07.695Z,0.30
2024-01-07T06:23:10.206Z,1.05
2024-01-07T06:25:12.807Z,0.10
2024-01-07T06:27:15.461Z,0.43
2024-01-07T06:29:17.929Z,0.50
2024-01-07T06:31:20.675Z,0.28
2024-01-07T06:33:26.210Z,0.47
2024-01-07T06:35:28.936Z,0.32
2024-01-07T06:37:31.925Z,0.20
2024-01-07T06:39:35.704Z,0.32
2024-01-07T06:41:38.251Z,0.35
2024-01-07T06:43:40.802Z,0.30
2024-01-07T06:45:45.021Z,0.20
2024-01-07T06:47:49.761Z,0.22
2024-01-07T06:49:55.456Z,0.30
2024-01-07T06:51:58.099Z,0.43
2024-01-07T06:54:00.578Z,0.10
2024-01-07T06:56:03.311Z,0.30
2024-01-07T06:58:05.967Z,0.25
2024-01-07T07:00:09.762Z,0.63
2024-01-07T07:02:14.242Z,0.30
2024-01-07T07:04:16.852Z,0.63
2024-01-07T07:06:42.151Z,0.20
2024-01-07T07:08:44.888Z,0.55
2024-01-07T07:10:50.227Z,0.52
2024-01-07T07:12:53.478Z,0.30
2024-01-07T07:15:16.066Z,0.20
2024-01-07T07:17:18.574Z,0.20
2024-01-07T07:19:21.328Z,0.30
2024-01-07T07:21:24.349Z,0.30
2024-01-07T07:23:49.562Z,0.30
2024-01-07T07:25:52.191Z,0.20
2024-01-07T07:27:54.863Z,0.17
2024-01-07T07:29:57.366Z,0.20
2024-01-07T07:32:00.737Z,0.20
2024-01-07T07:34:04.296Z,0.13
2024-01-07T07:36:07.156Z,0.52
2024-01-07T07:38:09.711Z,0.73
2024-01-07T07:40:15.775Z,0.85
2024-01-07T07:42:38.318Z,0.20
2024-01-07T07:44:40.935Z,0.20
2024-01-07T07:46:43.513Z,0.50
2024-01-07T07:48:46.160Z,0.47
2024-01-07T07:50:49.397Z,0.45
2024-01-07T07:52:51.893Z,0.40
2024-01-07T07:54:54.610Z,0.20
2024-01-07T07:56:59.861Z,0.15
2024-01-07T07:59:02.337Z,0.80
2024-01-07T08:01:05.917Z,0.15
2024-01-07T08:03:09.218Z,0.10
2024-01-07T08:05:11.716Z,0.20
2024-01-07T08:07:14.470Z,0.15
2024-01-07T08:09:16.985Z,0.10
2024-01-07T08:11:19.809Z,0.75
2024-01-07T08:13:24.962Z,0.40
2024-01-07T08:15:27.765Z,0.25
2024-01-07T08:17:30.662Z,0.40
2024-01-07T08:19:33.644Z,0.20
2024-01-07T08:21:37.215Z,0.30
2024-01-07T08:23:39.725Z,0.30
2024-01-07T08:25:42.751Z,0.30
2024-01-07T08:27:45.481Z,0.30
2024-01-07T08:29:50.686Z,0.20
2024-01-07T08:31:53.371Z,0.35
2024-01-07T08:33:56.009Z,0.28
2024-01-07T08:35:58.619Z,0.30
2024-01-07T08:38:01.106Z,0.20
2024-01-07T08:40:10.915Z,0.40
2024-01-07T08:42:13.488Z,0.45
2024-01-07T08:44:15.968Z,0.20
2024-01-07T08:46:22.042Z,0.20
2024-01-07T08:48:24.767Z,0.20
2024-01-07T08:50:27.322Z,0.15
2024-01-07T08:52:29.863Z,0.17
2024-01-07T08:54:32.735Z,0.30
2024-01-07T08:56:36.520Z,1.15
2024-01-07T08:58:39.583Z,0.30
2024-01-07T09:00:42.224Z,0.55
2024-01-07T09:02:47.833Z,0.45
2024-01-07T09:04:52.199Z,0.10
2024-01-07T09:06:54.782Z,0.20
2024-01-07T09:08:57.550Z,0.28
2024-01-07T09:11:01.640Z,0.60
2024-01-07T09:13:05.024Z,1.00
2024-01-07T09:15:09.308Z,0.13
2024-01-07T09:17:32.766Z,0.40
2024-01-07T09:19:38.486Z,0.10
2024-01-07T09:21:43.503Z,0.20
2024-01-07T09:23:46.547Z,0.28
2024-01-07T09:26:09.326Z,0.20
2024-01-07T09:28:11.862Z,1.85
2024-01-07T09:30:19.048Z,0.17
2024-01-07T09:32:21.521Z,0.82
2024-01-07T09:34:24.094Z,0.43
2024-01-07T09:36:30.715Z,0.30
2024-01-07T09:38:33.721Z,0.57
2024-01-07T09:40:56.172Z,0.50
2024-01-07T09:43:00.609Z,0.63
2024-01-07T09:45:05.953Z,0.90
2024-01-07T09:47:12.133Z,0.10
2024-01-07T09:49:14.635Z,0.17
2024-01-07T09:51:20.485Z,1.65
2024-01-07T09:53:30.222Z,0.45
2024-01-07T09:55:38.903Z,1.75
2024-01-07T09:57:45.713Z,1.55
2024-01-07T09:59:48.764Z,0.73
2024-01-07T10:01:56.399Z,0.50
2024-01-07T10:03:59.441Z,0.30
2024-01-07T10:06:03.530Z,1.10
2024-01-07T10:08:07.828Z,1.17
2024-01-07T10:10:18.627Z,0.30
2024-01-07T10:12:24.466Z,0.85
2024-01-07T10:14:33.999Z,1.13
2024-01-07T10:18:39.782Z,0.20
2024-01-07T10:20:44.342Z,0.55
2024-01-07T10:22:51.020Z,2.30
2024-01-07T10:24:54.031Z,0.80
2024-01-07T10:26:59.713Z,0.20
2024-01-07T10:29:02.657Z,0.57
2024-01-07T10:31:27.179Z,1.00
2024-01-07T10:33:33.730Z,0.85
2024-01-07T10:35:38.928Z,0.30
2024-01-07T10:37:41.689Z,0.20
2024-01-07T10:39:44.151Z,0.50
2024-01-07T10:41:47.607Z,0.30
2024-01-07T10:43:53.151Z,0.55
2024-01-07T10:45:56.622Z,0.55
2024-01-07T10:48:04.603Z,1.02
2024-01-07T10:50:10.122Z,0.88
2024-01-07T10:52:13.354Z,0.30
2024-01-07T10:54:19.332Z,0.95
2024-01-07T10:56:24.921Z,1.95
2024-01-07T10:58:27.671Z,0.25
2024-01-07T11:00:33.517Z,0.60
2024-01-07T11:02:41.861Z,1.00
2024-01-07T11:04:53.633Z,2.72
2024-01-07T11:07:24.532Z,1.10
2024-01-07T11:09:34.837Z,0.57
2024-01-07T11:11:42.857Z,1.30
2024-01-07T11:13:45.920Z,0.95
2024-01-07T11:15:57.761Z,0.65
2024-01-07T11:18:02.675Z,0.63
2024-01-07T11:20:07.087Z,1.02
2024-01-07T11:22:26.569Z,0.65
2024-01-07T11:24:43.979Z,0.52
2024-01-07T11:26:48.262Z,0.50
2024-01-07T11:28:53.121Z,1.23
2024-01-07T11:30:59.335Z,1.88
2024-01-07T11:33:02.307Z,4.07
2024-01-07T11:35:06.372Z,3.67
2024-01-07T11:37:12.563Z,1.70
2024-01-07T11:39:15.870Z,2.17
2024-01-07T11:41:19.819Z,5.55
2024-01-07T11:43:22.334Z,3.90
2024-01-07T11:45:25.036Z,3.45
2024-01-07T11:47:30.669Z,3.75
2024-01-07T11:49:34.028Z,4.90
2024-01-07T11:51:38.207Z,2.17
2024-01-07T11:53:40.784Z,2.65
2024-01-07T11:55:44.155Z,3.10
2024-01-07T11:57:46.744Z,3.17
2024-01-07T12:00:12.692Z,3.45
2024-01-07T12:02:16.618Z,3.83
2024-01-07T12:04:22.089Z,2.85
2024-01-07T12:06:26.332Z,2.55
2024-01-07T12:08:50.877Z,2.78
2024-01-07T12:10:53.782Z,2.30
2024-01-07T12:12:57.669Z,2.75
2024-01-07T12:15:00.452Z,3.20
2024-01-07T12:17:03.729Z,2.95
2024-01-07T12:19:09.649Z,2.22
2024-01-07T12:21:21.229Z,1.83
2024-01-07T12:23:25.077Z,1.42
2024-01-07T12:25:27.595Z,1.65
2024-01-07T12:27:31.417Z,1.55
2024-01-07T12:29:34.154Z,1.35
2024-01-07T12:31:37.911Z,2.38
2024-01-07T12:33:42.529Z,1.40
2024-01-07T12:35:45.550Z,2.72
2024-01-07T12:37:50.787Z,1.45
2024-01-07T12:39:53.365Z,1.63
2024-01-07T12:41:55.913Z,1.55
2024-01-07T12:43:58.381Z,1.55
2024-01-07T12:46:06.387Z,1.60
2024-01-07T12:48:09.301Z,4.20
2024-01-07T12:50:12.888Z,1.45
2024-01-07T12:52:15.702Z,1.40
2024-01-07T12:54:21.231Z,1.35
2024-01-07T12:56:23.857Z,1.40
2024-01-07T12:58:26.405Z,1.15
2024-01-07T13:00:30.163Z,1.60
2024-01-07T13:02:32.733Z,1.58
2024-01-07T13:04:35.634Z,1.75
2024-01-07T13:06:38.536Z,1.17
2024-01-07T13:08:42.037Z,1.77
2024-01-07T13:10:47.369Z,1.10
2024-01-07T13:12:53.198Z,1.80
2024-01-07T13:14:58.370Z,1.42
2024-01-07T13:17:01.306Z,1.35
2024-01-07T13:19:05.613Z,2.20
2024-01-07T13:21:09.289Z,2.20
2024-01-07T13:23:11.748Z,1.10
2024-01-07T13:25:15.104Z,1.27
2024-01-07T13:27:20.411Z,0.70
2024-01-07T13:29:23.394Z,1.35
2024-01-07T13:31:26.314Z,1.45
2024-01-07T13:33:28.989Z,1.13
2024-01-07T13:35:31.519Z,0.75
2024-01-07T13:37:34.104Z,0.75
2024-01-07T13:39:37.070Z,0.65
2024-01-07T13:41:41.896Z,0.80
2024-01-07T13:43:47.372Z,1.70
2024-01-07T13:45:49.957Z,1.00
2024-01-07T13:47:52.687Z,1.10
2024-01-07T13:49:55.413Z,0.68
2024-01-07T13:51:57.918Z,1.50
2024-01-07T13:54:00.601Z,1.00
2024-01-07T13:56:03.097Z,1.33
2024-01-07T13:58:06.036Z,0.70
2024-01-07T14:00:20.083Z,1.42
2024-01-07T14:02:23.829Z,3.13
2024-01-07T14:04:26.497Z,0.93
2024-01-07T14:06:29.179Z,0.88
2024-01-07T14:08:31.882Z,0.73
2024-01-07T14:10:35.353Z,1.38
2024-01-07T14:12:38.573Z,1.85
2024-01-07T14:14:41.219Z,1.05
2024-01-07T14:16:46.431Z,1.42
2024-01-07T14:19:08.919Z,1.10
2024-01-07T14:21:11.804Z,2.83
2024-01-07T14:23:14.323Z,0.70
2024-01-07T14:25:17.373Z,0.63
2024-01-07T14:27:20.366Z,2.05
2024-01-07T14:29:22.904Z,0.73
2024-01-07T14:31:25.466Z,0.50
2024-01-07T14:33:31.014Z,1.20
2024-01-07T14:35:34.998Z,0.73
2024-01-07T14:37:37.437Z,2.03
2024-01-07T14:39:42.602Z,1.42
2024-01-07T14:41:45.388Z,1.65
2024-01-07T14:43:49.012Z,0.98
2024-01-07T14:45:51.799Z,0.88
2024-01-07T14:48:01.574Z,2.78
2024-01-07T14:50:08.841Z,0.85
2024-01-07T14:52:11.476Z,0.77
2024-01-07T14:54:14.370Z,0.70
2024-01-07T14:56:16.976Z,0.55
2024-01-07T14:58:20.145Z,0.43
2024-01-07T15:00:42.772Z,0.82
2024-01-07T15:02:45.290Z,0.65
2024-01-07T15:04:47.983Z,0.73
2024-01-07T15:06:53.160Z,0.40
2024-01-07T15:08:55.575Z,0.82
2024-01-07T15:10:59.866Z,1.38
2024-01-07T15:13:10.477Z,0.60
2024-01-07T15:15:23.703Z,1.33
2024-01-07T15:17:26.748Z,1.00
2024-01-07T15:19:29.305Z,1.02
2024-01-07T15:21:32.008Z,0.60
2024-01-07T15:23:37.211Z,0.40
2024-01-07T15:25:40.120Z,0.60
2024-01-07T15:27:44.199Z,0.47
2024-01-07T15:30:08.730Z,0.85
2024-01-07T15:32:11.420Z,0.57
2024-01-07T15:34:14.313Z,1.50
2024-01-07T15:36:18.204Z,0.47
2024-01-07T15:38:20.773Z,0.57
2024-01-07T15:40:26.311Z,0.70
2024-01-07T15:42:28.860Z,0.45
2024-01-07T15:44:32.604Z,0.45
2024-01-07T15:46:55.731Z,0.95
2024-01-07T15:48:58.489Z,0.40
2024-01-07T15:51:01.205Z,0.50
2024-01-07T15:53:05.838Z,0.50
2024-01-07T15:55:10.299Z,0.40
2024-01-07T15:57:18.206Z,0.70
2024-01-07T15:59:21.019Z,0.73
2024-01-07T16:01:23.785Z,0.50
2024-01-07T16:03:26.627Z,0.40
2024-01-07T16:05:49.321Z,0.28
2024-01-07T16:07:53.313Z,0.30
2024-01-07T16:09:56.749Z,0.40
2024-01-07T16:12:00.367Z,0.47
2024-01-07T16:14:06.505Z,0.40
2024-01-07T16:16:09.291Z,0.40
2024-01-07T16:18:11.940Z,0.60
2024-01-07T16:20:34.908Z,0.60
2024-01-07T16:22:37.339Z,0.40
2024-01-07T16:24:43.142Z,0.30
2024-01-07T16:26:45.809Z,0.50
2024-01-07T16:28:48.393Z,0.50
2024-01-07T16:30:55.691Z,0.28
2024-01-07T16:32:58.320Z,0.30
2024-01-07T16:35:01.364Z,0.38
2024-01-07T16:37:04.308Z,0.40
2024-01-07T16:39:07.063Z,0.70
2024-01-07T16:41:10.611Z,0.30
2024-01-07T16:43:13.316Z,0.38
2024-01-07T16:45:15.927Z,0.57
2024-01-07T16:47:21.140Z,0.30
2024-01-07T16:51:29.672Z,0.30
2024-01-07T16:53:33.295Z,0.45
2024-01-07T16:55:35.821Z,0.43
2024-01-07T16:57:39.113Z,0.80
2024-01-07T16:59:43.539Z,0.40
2024-01-07T17:01:46.726Z,0.47
2024-01-07T17:03:52.648Z,0.30
2024-01-07T17:05:55.175Z,0.50
2024-01-07T17:07:57.657Z,0.50
2024-01-07T17:10:00.184Z,0.40
2024-01-07T17:12:06.308Z,0.52
2024-01-07T17:14:08.805Z,0.20
2024-01-07T17:16:11.363Z,0.30
2024-01-07T17:18:13.921Z,0.60
2024-01-07T17:20:21.156Z,0.60
2024-01-07T17:22:23.861Z,0.45
2024-01-07T17:24:26.364Z,1.42
2024-01-07T17:26:30.340Z,0.40
2024-01-07T17:28:32.894Z,1.08
2024-01-07T17:30:35.413Z,0.20
2024-01-07T17:32:38.150Z,0.52
2024-01-07T17:34:40.818Z,0.40
2024-01-07T17:37:06.366Z,0.30
2024-01-07T17:39:11.155Z,0.38
2024-01-07T17:41:13.867Z,0.45
2024-01-07T17:43:36.891Z,0.52
2024-01-07T17:45:39.450Z,0.30
2024-01-07T17:47:42.080Z,0.57
2024-01-07T17:49:46.371Z,0.25
2024-01-07T17:51:49.204Z,0.57
2024-01-07T17:53:54.928Z,0.60
2024-01-07T17:56:01.478Z,0.30
2024-01-07T17:58:04.430Z,0.40
2024-01-07T18:00:10.450Z,0.30
2024-01-07T18:02:14.048Z,0.47
2024-01-07T18:04:16.916Z,0.35
2024-01-07T18:06:19.545Z,0.40
2024-01-07T18:08:29.758Z,0.52
2024-01-07T18:10:40.465Z,0.30
2024-01-07T18:12:45.337Z,0.50
2024-01-07T18:14:47.943Z,0.32
2024-01-07T18:16:50.567Z,0.30
2024-01-07T18:18:53.038Z,0.30
2024-01-07T18:20:56.821Z,0.30
2024-01-07T18:22:59.295Z,0.30
2024-01-07T18:25:01.700Z,0.30
2024-01-07T18:27:07.423Z,0.38
2024-01-07T18:29:13.066Z,0.47
2024-01-07T18:31:15.658Z,0.40
2024-01-07T18:33:18.201Z,0.28
2024-01-07T18:35:21.208Z,0.20
2024-01-07T18:37:25.091Z,0.30
2024-01-07T18:39:27.763Z,0.30
2024-01-07T18:41:30.371Z,0.30
2024-01-07T18:43:38.400Z,0.40
2024-01-07T18:45:40.897Z,0.60
2024-01-07T18:47:44.530Z,0.25
2024-01-07T18:49:47.129Z,0.45
2024-01-07T18:51:49.589Z,0.45
2024-01-07T18:53:52.026Z,0.20
2024-01-07T18:55:57.355Z,0.32
2024-01-07T18:58:00.088Z,0.20
2024-01-07T19:00:07.072Z,0.22
2024-01-07T19:02:10.004Z,0.43
2024-01-07T19:04:12.484Z,0.40
2024-01-07T19:06:15.028Z,0.30
2024-01-07T19:08:18.511Z,0.30
2024-01-07T19:10:20.945Z,0.30
2024-01-07T19:12:23.572Z,0.40
2024-01-07T19:14:27.098Z,0.30
2024-01-07T19:16:52.648Z,0.38
2024-01-07T19:18:55.228Z,0.77
2024-01-07T19:21:18.399Z,0.40
2024-01-07T19:23:23.102Z,0.30
2024-01-07T19:25:26.598Z,0.55
2024-01-07T19:27:29.563Z,0.40
2024-01-07T19:29:32.854Z,0.50
2024-01-07T19:31:40.434Z,0.70
2024-01-07T19:33:45.957Z,0.55
2024-01-07T19:35:49.486Z,0.40
2024-01-07T19:37:53.228Z,0.50
2024-01-07T19:39:58.568Z,0.38
2024-01-07T19:42:04.477Z,0.43
2024-01-07T19:44:08.571Z,0.35
2024-01-07T19:46:11.508Z,1.90
2024-01-07T19:48:14.075Z,0.50
2024-01-07T19:50:19.409Z,0.50
2024-01-07T19:52:21.916Z,0.50
2024-01-07T19:54:27.559Z,1.30
2024-01-07T19:56:33.330Z,1.30
2024-01-07T19:58:35.948Z,1.13
2024-01-07T20:00:38.482Z,2.05
2024-01-07T20:02:41.108Z,1.17
2024-01-07T20:04:46.318Z,0.52
2024-01-07T20:06:52.317Z,2.40
2024-01-07T20:08:55.031Z,1.10
2024-01-07T20:10:57.756Z,0.50
2024-01-07T20:13:00.260Z,1.77
2024-01-07T20:15:06.108Z,1.60
2024-01-07T20:17:08.676Z,0.40
2024-01-07T20:19:11.345Z,0.30
2024-01-07T20:21:21.853Z,0.77
2024-01-07T20:23:28.027Z,0.40
2024-01-07T20:25:30.510Z,0.30
2024-01-07T20:27:32.914Z,0.60
2024-01-07T20:29:38.218Z,0.40
2024-01-07T20:31:40.812Z,0.45
2024-01-07T20:33:43.820Z,0.35
2024-01-07T20:35:46.367Z,0.30
2024-01-07T20:37:48.962Z,0.30
2024-01-07T20:39:54.075Z,0.30
2024-01-07T20:41:56.914Z,1.27
2024-01-07T20:44:00.507Z,0.82
2024-01-07T20:46:04.076Z,1.58
2024-01-07T20:48:07.869Z,1.23
2024-01-07T20:50:11.218Z,0.88
2024-01-07T20:52:15.628Z,0.50
2024-01-07T20:54:18.144Z,0.40
2024-01-07T20:56:23.257Z,0.57
2024-01-07T20:58:26.036Z,0.40
2024-01-07T21:00:28.587Z,0.40
2024-01-07T21:02:33.391Z,0.47
2024-01-07T21:04:35.964Z,0.45
2024-01-07T21:06:39.700Z,0.82
2024-01-07T21:08:42.349Z,0.70
2024-01-07T21:10:44.813Z,0.32
2024-01-07T21:12:51.143Z,0.45
2024-01-07T21:14:53.542Z,0.77
2024-01-07T21:16:58.035Z,0.40
2024-01-07T21:19:00.705Z,0.50
2024-01-07T21:21:05.413Z,0.98
2024-01-07T21:23:08.148Z,0.52
2024-01-07T21:25:11.574Z,0.40
2024-01-07T21:27:14.081Z,0.50
2024-01-07T21:29:39.127Z,0.40
2024-01-07T21:31:41.626Z,0.40
2024-01-07T21:33:45.006Z,0.60
2024-01-07T21:35:48.555Z,0.50
2024-01-07T21:37:51.226Z,0.45
2024-01-07T21:39:55.985Z,0.55
2024-01-07T21:41:58.946Z,0.40
2024-01-07T21:44:01.445Z,0.40
2024-01-07T21:46:08.175Z,0.40
2024-01-07T21:48:35.293Z,0.50
2024-01-07T21:50:37.863Z,0.50
2024-01-07T21:52:41.361Z,0.63
2024-01-07T21:54:44.176Z,0.60
2024-01-07T21:56:47.582Z,0.38
2024-01-07T21:58:50.041Z,0.40
2024-01-07T22:00:52.595Z,0.40
2024-01-07T22:02:57.808Z,0.45
2024-01-07T22:05:00.430Z,0.50
2024-01-07T22:07:02.946Z,0.40
2024-01-07T22:09:05.510Z,0.50
2024-01-07T22:11:13.413Z,1.17
2024-01-07T22:13:18.668Z,0.82
2024-01-07T22:15:21.130Z,0.55
2024-01-07T22:17:25.818Z,0.60
2024-01-07T22:19:30.940Z,0.40
2024-01-07T22:21:33.713Z,0.50
2024-01-07T22:23:36.289Z,0.40
2024-01-07T22:25:39.837Z,1.42
2024-01-07T22:27:42.356Z,0.30
2024-01-07T22:29:44.838Z,1.00
2024-01-07T22:31:47.479Z,0.43
2024-01-07T22:33:51.018Z,0.90
2024-01-07T22:35:56.125Z,0.40
2024-01-07T22:37:58.619Z,0.40
2024-01-07T22:40:01.128Z,0.40
2024-01-07T22:42:04.386Z,0.50
2024-01-07T22:44:06.921Z,0.50
2024-01-07T22:46:09.585Z,0.40
2024-01-07T22:48:12.162Z,0.70
2024-01-07T22:50:15.051Z,0.50
2024-01-07T22:52:40.324Z,0.52
2024-01-07T22:54:42.731Z,0.50
2024-01-07T22:56:46.767Z,0.47
2024-01-07T22:58:49.267Z,0.47
2024-01-07T23:00:51.846Z,0.65
2024-01-07T23:02:54.524Z,0.70
2024-01-07T23:04:57.256Z,0.77
2024-01-07T23:06:59.917Z,0.73
2024-01-07T23:09:05.573Z,0.50
2024-01-07T23:11:08.024Z,1.17
2024-01-07T23:13:11.474Z,0.50
2024-01-07T23:15:15.024Z,0.55
2024-01-07T23:17:23.007Z,0.38
2024-01-07T23:19:26.352Z,0.40
2024-01-07T23:21:28.884Z,0.60
2024-01-07T23:23:31.384Z,1.02
2024-01-07T23:25:36.995Z,0.40
2024-01-07T23:27:41.705Z,0.65
2024-01-07T23:29:44.368Z,0.47
2024-01-07T23:31:48.106Z,0.50
2024-01-07T23:33:50.873Z,0.52
2024-01-07T23:36:01.291Z,0.45
2024-01-07T23:38:05.284Z,0.63
2024-01-07T23:40:10.216Z,0.40
2024-01-07T23:42:15.341Z,0.50
2024-01-07T23:44:37.805Z,0.40
2024-01-07T23:46:40.889Z,0.52
2024-01-07T23:48:43.431Z,0.50
2024-01-07T23:50:47.707Z,0.63
2024-01-07T23:52:50.304Z,0.50
2024-01-07T23:54:52.891Z,0.60
2024-01-07T23:56:55.490Z,0.60
2024-01-07T23:59:00.660Z,0.93
